createdAt,value
2023-02-07T00:01:34.174Z,44.30
2023-02-07T00:04:02.372Z,44.23
2023-02-07T00:06:34.044Z,44.73
2023-02-07T00:09:04.563Z,44.62
2023-02-07T00:11:32.302Z,44.30
2023-02-07T00:14:00.256Z,44.59
2023-02-07T00:16:28.468Z,44.55
2023-02-07T00:18:58.340Z,43.84
2023-02-07T00:21:28.541Z,44.18
2023-02-07T00:23:56.351Z,44.36
2023-02-07T00:26:26.722Z,44.38
2023-02-07T00:28:55.638Z,44.61
2023-02-07T00:31:35.112Z,44.82
2023-02-07T00:34:06.070Z,44.17
2023-02-07T00:36:36.256Z,44.69
2023-02-07T00:39:08.482Z,44.60
2023-02-07T00:41:35.716Z,44.67
2023-02-07T00:44:04.042Z,44.89
2023-02-07T00:46:31.932Z,45.29
2023-02-07T00:48:59.766Z,44.73
2023-02-07T00:51:27.808Z,45.16
2023-02-07T00:53:56.353Z,44.56
2023-02-07T00:56:26.550Z,44.64
2023-02-07T00:58:54.330Z,44.54
2023-02-07T01:01:22.587Z,44.83
2023-02-07T01:03:51.000Z,44.91
2023-02-07T01:06:18.490Z,44.51
2023-02-07T01:08:46.161Z,44.41
2023-02-07T01:11:17.050Z,45.02
2023-02-07T01:13:45.370Z,44.81
2023-02-07T01:16:28.583Z,44.62
2023-02-07T01:18:56.791Z,44.83
2023-02-07T01:21:26.754Z,44.68
2023-02-07T01:23:54.869Z,45.28
2023-02-07T01:26:25.012Z,45.13
2023-02-07T01:28:55.077Z,45.40
2023-02-07T01:31:23.857Z,45.63
2023-02-07T01:34:00.292Z,45.00
2023-02-07T01:36:30.058Z,44.98
2023-02-07T01:38:57.880Z,44.81
2023-02-07T01:41:27.114Z,44.79
2023-02-07T01:44:07.193Z,45.19
2023-02-07T01:46:37.098Z,44.59
2023-02-07T01:49:13.258Z,45.00
2023-02-07T01:51:48.900Z,45.30
2023-02-07T01:54:18.718Z,45.19
2023-02-07T01:56:57.214Z,45.47
2023-02-07T01:59:26.912Z,45.50
2023-02-07T02:02:01.384Z,45.50
2023-02-07T02:04:29.293Z,45.78
2023-02-07T02:06:57.983Z,45.28
2023-02-07T02:09:27.495Z,45.83
2023-02-07T02:12:34.277Z,45.61
2023-02-07T02:15:30.886Z,45.63
2023-02-07T02:18:42.811Z,45.92
2023-02-07T02:21:18.859Z,45.65
2023-02-07T02:24:14.841Z,45.71
2023-02-07T02:26:54.260Z,45.34
2023-02-07T02:30:03.270Z,45.80
2023-02-07T02:32:51.484Z,45.18
2023-02-07T02:35:52.154Z,45.38
2023-02-07T02:38:32.453Z,45.36
2023-02-07T02:41:11.830Z,45.35
2023-02-07T02:43:56.399Z,45.30
2023-02-07T02:46:36.625Z,45.40
2023-02-07T02:49:08.887Z,45.25
2023-02-07T02:51:36.296Z,45.71
2023-02-07T02:54:03.620Z,46.02
2023-02-07T02:56:58.649Z,45.91
2023-02-07T02:59:44.666Z,45.41
2023-02-07T03:03:15.396Z,45.64
2023-02-07T03:06:16.373Z,46.33
2023-02-07T03:08:47.936Z,46.41
2023-02-07T03:11:22.264Z,45.14
2023-02-07T03:14:20.469Z,44.87
2023-02-07T03:17:01.860Z,45.79
2023-02-07T03:19:48.681Z,45.96
2023-02-07T03:22:22.165Z,45.99
2023-02-07T03:24:56.041Z,46.28
2023-02-07T03:27:25.922Z,46.76
2023-02-07T03:29:56.849Z,46.79
2023-02-07T03:32:38.526Z,46.21
2023-02-07T03:35:25.437Z,46.13
2023-02-07T03:38:01.557Z,46.43
2023-02-07T03:40:44.442Z,46.54
2023-02-07T03:43:35.166Z,46.42
2023-02-07T03:46:02.447Z,46.60
2023-02-07T03:48:30.113Z,46.20
2023-02-07T03:50:57.548Z,46.20
2023-02-07T03:53:25.115Z,46.67
2023-02-07T03:55:52.299Z,46.73
2023-02-07T03:58:20.181Z,46.57
2023-02-07T04:00:47.430Z,46.07
2023-02-07T04:03:14.813Z,46.16
2023-02-07T04:05:43.883Z,45.74
2023-02-07T04:08:11.161Z,45.55
2023-02-07T04:10:38.605Z,45.42
2023-02-07T04:13:06.178Z,45.77
2023-02-07T04:15:33.392Z,45.49
2023-02-07T04:18:00.613Z,45.48
2023-02-07T04:20:28.157Z,45.60
2023-02-07T04:22:55.362Z,45.76
2023-02-07T04:25:22.772Z,45.89
2023-02-07T04:27:50.013Z,45.79
2023-02-07T04:30:17.431Z,45.46
2023-02-07T04:32:44.552Z,45.41
2023-02-07T04:35:11.955Z,45.77
2023-02-07T04:37:39.466Z,45.61
2023-02-07T04:40:07.932Z,45.92
2023-02-07T04:42:35.082Z,45.89
2023-02-07T04:45:02.360Z,46.09
2023-02-07T04:47:29.528Z,45.67
2023-02-07T04:49:56.949Z,46.18
2023-02-07T04:52:24.187Z,46.54
2023-02-07T04:54:51.426Z,46.60
2023-02-07T04:57:19.164Z,46.68
2023-02-07T04:59:46.430Z,46.71
2023-02-07T05:02:13.855Z,46.74
2023-02-07T05:04:41.491Z,46.25
2023-02-07T05:07:09.075Z,46.37
2023-02-07T05:09:36.528Z,46.48
2023-02-07T05:12:04.049Z,46.32
2023-02-07T05:14:31.316Z,45.91
2023-02-07T05:16:58.861Z,46.21
2023-02-07T05:19:26.416Z,46.43
2023-02-07T05:21:53.626Z,46.10
2023-02-07T05:24:20.959Z,46.07
2023-02-07T05:26:48.184Z,46.76
2023-02-07T05:29:15.437Z,46.23
2023-02-07T05:31:42.896Z,46.08
2023-02-07T05:34:10.285Z,46.38
2023-02-07T05:36:37.489Z,46.58
2023-02-07T05:39:05.019Z,46.11
2023-02-07T05:41:32.300Z,46.43
2023-02-07T05:43:59.472Z,46.08
2023-02-07T05:46:28.324Z,46.73
2023-02-07T05:48:55.573Z,46.68
2023-02-07T05:51:22.809Z,46.71
2023-02-07T05:53:51.392Z,45.57
2023-02-07T05:56:22.733Z,46.43
2023-02-07T05:58:50.187Z,46.66
2023-02-07T06:01:17.440Z,47.30
2023-02-07T06:03:44.727Z,47.03
2023-02-07T06:06:12.087Z,46.81
2023-02-07T06:08:39.344Z,47.08
2023-02-07T06:11:06.881Z,46.99
2023-02-07T06:13:34.222Z,47.22
2023-02-07T06:16:01.418Z,47.10
2023-02-07T06:18:28.789Z,47.02
2023-02-07T06:20:56.113Z,46.73
2023-02-07T06:23:23.342Z,47.08
2023-02-07T06:25:50.628Z,46.91
2023-02-07T06:28:18.043Z,46.81
2023-02-07T06:30:45.386Z,46.57
2023-02-07T06:33:12.963Z,46.24
2023-02-07T06:35:42.952Z,46.10
2023-02-07T06:38:18.072Z,46.23
2023-02-07T06:40:45.807Z,45.89
2023-02-07T06:43:13.361Z,44.96
2023-02-07T06:45:41.331Z,45.82
2023-02-07T06:48:10.967Z,45.80
2023-02-07T06:50:38.655Z,46.11
2023-02-07T06:53:06.054Z,46.18
2023-02-07T06:55:39.567Z,46.43
2023-02-07T06:58:07.969Z,46.93
2023-02-07T07:00:35.727Z,46.26
2023-02-07T07:03:04.491Z,46.94
2023-02-07T07:05:32.985Z,46.22
2023-02-07T07:08:00.292Z,46.06
2023-02-07T07:10:27.985Z,46.30
2023-02-07T07:12:55.198Z,45.94
2023-02-07T07:16:22.293Z,46.72
2023-02-07T07:19:04.512Z,47.39
2023-02-07T07:21:32.143Z,47.39
2023-02-07T07:23:59.790Z,47.03
2023-02-07T07:26:36.675Z,47.24
2023-02-07T07:29:14.142Z,47.22
2023-02-07T07:31:41.335Z,46.45
2023-02-07T07:34:08.564Z,47.48
2023-02-07T07:36:35.793Z,47.13
2023-02-07T07:39:03.668Z,47.59
2023-02-07T07:41:31.039Z,47.02
2023-02-07T07:43:58.331Z,47.78
2023-02-07T07:46:25.852Z,46.93
2023-02-07T07:48:53.144Z,47.19
2023-02-07T07:51:20.384Z,46.38
2023-02-07T07:53:54.799Z,46.48
2023-02-07T07:56:22.057Z,46.92
2023-02-07T07:58:49.274Z,47.00
2023-02-07T08:01:16.572Z,46.70
2023-02-07T08:03:43.844Z,47.55
2023-02-07T08:06:11.325Z,47.37
2023-02-07T08:08:38.714Z,47.41
2023-02-07T08:11:09.404Z,46.83
2023-02-07T08:13:38.397Z,47.69
2023-02-07T08:16:07.664Z,47.18
2023-02-07T08:18:35.666Z,47.82
2023-02-07T08:21:03.648Z,47.38
2023-02-07T08:23:31.230Z,46.93
2023-02-07T08:25:58.416Z,46.52
2023-02-07T08:28:27.346Z,47.34
2023-02-07T08:30:55.044Z,47.77
2023-02-07T08:33:22.944Z,47.65
2023-02-07T08:35:50.964Z,47.07
2023-02-07T08:38:18.242Z,47.18
2023-02-07T08:40:45.420Z,46.96
2023-02-07T08:43:14.296Z,47.41
2023-02-07T08:45:47.174Z,47.00
2023-02-07T08:48:15.269Z,46.54
2023-02-07T08:50:42.675Z,46.34
2023-02-07T08:53:10.273Z,46.37
2023-02-07T08:55:40.998Z,46.63
2023-02-07T08:58:08.473Z,45.54
2023-02-07T09:00:36.540Z,45.54
2023-02-07T09:03:05.143Z,46.25
2023-02-07T09:05:32.621Z,45.24
2023-02-07T09:08:01.644Z,45.54
2023-02-07T09:10:29.000Z,45.40
2023-02-07T09:12:56.332Z,45.48
2023-02-07T09:15:23.618Z,45.31
2023-02-07T09:17:50.826Z,44.83
2023-02-07T09:20:18.427Z,45.23
2023-02-07T09:22:45.690Z,45.46
2023-02-07T09:25:13.149Z,45.41
2023-02-07T09:27:40.473Z,45.21
2023-02-07T09:30:09.922Z,44.80
2023-02-07T09:32:37.137Z,44.43
2023-02-07T09:35:04.510Z,44.62
2023-02-07T09:37:37.395Z,44.84
2023-02-07T09:40:19.001Z,44.23
2023-02-07T09:43:26.661Z,43.93
2023-02-07T09:46:03.033Z,44.37
2023-02-07T09:48:51.183Z,44.47
2023-02-07T09:51:24.252Z,44.29
2023-02-07T09:54:00.257Z,44.11
2023-02-07T09:56:30.102Z,43.80
2023-02-07T09:59:27.384Z,43.37
2023-02-07T10:02:01.702Z,44.26
2023-02-07T10:04:39.615Z,43.89
2023-02-07T10:07:11.496Z,43.83
2023-02-07T10:09:42.728Z,43.03
2023-02-07T10:12:56.149Z,42.33
2023-02-07T10:15:57.093Z,42.46
2023-02-07T10:18:52.435Z,42.16
2023-02-07T10:21:41.276Z,42.42
2023-02-07T10:24:33.401Z,42.53
2023-02-07T10:27:11.560Z,42.36
2023-02-07T10:30:24.465Z,41.92
2023-02-07T10:32:52.405Z,41.72
2023-02-07T10:35:35.037Z,41.83
2023-02-07T10:38:04.585Z,42.57
2023-02-07T10:40:52.987Z,43.00
2023-02-07T10:43:33.246Z,43.69
2023-02-07T10:46:08.929Z,43.76
2023-02-07T10:48:37.970Z,42.86
2023-02-07T10:51:19.408Z,42.08
2023-02-07T10:54:01.052Z,42.31
2023-02-07T10:56:31.676Z,41.33
2023-02-07T10:59:00.075Z,41.90
2023-02-07T11:01:31.830Z,41.86
2023-02-07T11:03:59.693Z,41.79
2023-02-07T11:06:34.915Z,40.84
2023-02-07T11:09:24.719Z,40.58
2023-02-07T11:11:54.384Z,41.44
2023-02-07T11:14:25.861Z,40.63
2023-02-07T11:17:00.165Z,39.34
2023-02-07T11:19:31.969Z,38.65
2023-02-07T11:22:23.636Z,39.03
2023-02-07T11:24:59.523Z,39.02
2023-02-07T11:27:27.631Z,39.45
2023-02-07T11:30:07.094Z,39.66
2023-02-07T11:32:35.000Z,40.66
2023-02-07T11:35:08.613Z,40.84
2023-02-07T11:37:40.510Z,40.96
2023-02-07T11:40:27.030Z,39.88
2023-02-07T11:47:05.269Z,40.70
2023-02-07T11:49:54.391Z,40.98
2023-02-07T11:52:22.478Z,40.75
2023-02-07T11:55:06.206Z,40.52
2023-02-07T11:57:34.729Z,39.00
2023-02-07T12:00:04.793Z,37.07
2023-02-07T12:02:33.849Z,33.61
2023-02-07T12:05:25.795Z,31.21
2023-02-07T12:08:06.497Z,29.22
2023-02-07T12:10:39.849Z,27.32
2023-02-07T12:13:31.352Z,25.71
2023-02-07T12:16:15.411Z,24.08
2023-02-07T12:18:53.647Z,22.61
2023-02-07T12:21:32.402Z,20.15
2023-02-07T12:24:16.983Z,20.04
2023-02-07T12:26:54.438Z,19.96
2023-02-07T12:29:50.093Z,18.21
2023-02-07T12:32:42.529Z,18.40
2023-02-07T12:39:44.435Z,18.86
2023-02-07T12:42:39.507Z,18.76
2023-02-07T12:45:14.790Z,18.06
2023-02-07T12:48:19.045Z,19.37
2023-02-07T12:51:07.736Z,19.37
2023-02-07T12:54:06.011Z,18.99
2023-02-07T12:57:18.882Z,20.02
2023-02-07T13:00:08.781Z,20.63
2023-02-07T13:02:54.054Z,20.72
2023-02-07T13:06:00.561Z,21.48
2023-02-07T13:12:49.987Z,21.76
2023-02-07T13:15:55.120Z,22.99
2023-02-07T13:18:42.106Z,24.12
2023-02-07T13:21:29.095Z,25.52
2023-02-07T13:24:06.324Z,27.75
2023-02-07T13:26:35.451Z,27.95
2023-02-07T13:29:17.326Z,28.23
2023-02-07T13:31:58.079Z,30.23
2023-02-07T13:34:32.095Z,31.05
2023-02-07T13:37:11.454Z,31.06
2023-02-07T13:44:26.789Z,34.77
2023-02-07T13:51:38.632Z,35.35
2023-02-07T13:55:05.333Z,35.16
2023-02-07T14:01:32.168Z,36.54
2023-02-07T14:04:10.538Z,37.61
2023-02-07T14:10:51.235Z,36.54
2023-02-07T14:13:27.895Z,37.30
2023-02-07T14:16:09.375Z,36.05
2023-02-07T14:18:50.151Z,37.14
2023-02-07T14:21:23.113Z,36.61
2023-02-07T14:24:14.345Z,37.42
2023-02-07T14:35:17.418Z,37.38
2023-02-07T14:38:09.138Z,37.72
2023-02-07T14:41:01.816Z,36.96
2023-02-07T14:43:56.772Z,37.55
2023-02-07T14:46:42.631Z,38.06
2023-02-07T14:49:20.926Z,38.16
2023-02-07T14:51:54.796Z,37.73
2023-02-07T14:55:01.182Z,37.56
2023-02-07T15:02:30.441Z,38.02
2023-02-07T15:04:59.463Z,38.68
2023-02-07T15:07:26.676Z,39.08
2023-02-07T15:14:03.122Z,39.21
2023-02-07T15:16:35.823Z,38.96
2023-02-07T15:19:23.080Z,37.54
2023-02-07T15:21:51.353Z,37.56
2023-02-07T15:24:51.204Z,38.28
2023-02-07T15:27:26.818Z,38.87
2023-02-07T15:30:06.646Z,38.58
2023-02-07T15:32:43.643Z,38.34
2023-02-07T15:35:28.818Z,37.68
2023-02-07T15:38:23.130Z,38.06
2023-02-07T15:40:52.911Z,37.75
2023-02-07T15:43:35.414Z,37.65
2023-02-07T15:46:06.359Z,37.82
2023-02-07T15:48:49.832Z,38.16
2023-02-07T15:51:25.056Z,38.59
2023-02-07T15:53:57.810Z,38.06
2023-02-07T15:56:28.992Z,38.01
2023-02-07T15:59:10.458Z,38.52
2023-02-07T16:01:38.020Z,39.25
2023-02-07T16:04:08.861Z,39.48
2023-02-07T16:10:42.485Z,39.40
2023-02-07T16:13:23.121Z,39.74
2023-02-07T16:16:26.700Z,39.96
2023-02-07T16:19:19.890Z,39.48
2023-02-07T16:22:02.014Z,39.48
2023-02-07T16:24:31.649Z,40.10
2023-02-07T16:27:00.860Z,40.07
2023-02-07T16:29:29.067Z,40.07
2023-02-07T16:31:56.726Z,39.87
2023-02-07T16:34:26.640Z,40.42
2023-02-07T16:36:56.164Z,39.92
2023-02-07T16:39:24.032Z,39.45
2023-02-07T16:41:59.308Z,39.92
2023-02-07T16:44:28.268Z,40.01
2023-02-07T16:46:55.666Z,40.18
2023-02-07T16:49:25.392Z,39.62
2023-02-07T16:51:53.768Z,39.78
2023-02-07T16:54:22.031Z,40.03
2023-02-07T16:56:54.413Z,40.36
2023-02-07T16:59:23.254Z,40.59
2023-02-07T17:01:52.997Z,41.02
2023-02-07T17:04:21.904Z,40.83
2023-02-07T17:06:50.423Z,41.04
2023-02-07T17:09:24.932Z,40.56
2023-02-07T17:11:56.687Z,40.69
2023-02-07T17:14:23.941Z,40.65
2023-02-07T17:16:51.297Z,41.19
2023-02-07T17:19:23.130Z,40.87
2023-02-07T17:21:52.125Z,40.60
2023-02-07T17:24:20.157Z,40.89
2023-02-07T17:26:54.286Z,41.46
2023-02-07T17:29:22.525Z,41.38
2023-02-07T17:31:50.390Z,41.71
2023-02-07T17:34:18.047Z,41.60
2023-02-07T17:36:50.999Z,40.74
2023-02-07T17:39:19.652Z,40.43
2023-02-07T17:41:46.932Z,41.07
2023-02-07T17:44:14.454Z,40.91
2023-02-07T17:46:47.390Z,40.97
2023-02-07T17:49:16.995Z,41.30
2023-02-07T17:51:44.304Z,41.02
2023-02-07T17:58:18.738Z,40.87
2023-02-07T18:00:45.975Z,41.41
2023-02-07T18:03:21.866Z,41.57
2023-02-07T18:05:49.112Z,41.75
2023-02-07T18:12:16.696Z,41.64
2023-02-07T18:14:44.108Z,41.71
2023-02-07T18:17:11.897Z,41.69
2023-02-07T18:19:41.394Z,41.77
2023-02-07T18:22:11.327Z,41.64
2023-02-07T18:24:38.545Z,41.82
2023-02-07T18:27:06.116Z,41.53
2023-02-07T18:29:33.392Z,41.53
2023-02-07T18:32:00.759Z,41.45
2023-02-07T18:34:28.336Z,41.02
2023-02-07T18:36:55.800Z,41.22
2023-02-07T18:39:23.366Z,41.97
2023-02-07T18:41:50.594Z,41.35
2023-02-07T18:44:17.835Z,41.84
2023-02-07T18:46:45.210Z,41.01
2023-02-07T18:49:13.713Z,41.06
2023-02-07T18:51:41.072Z,41.43
2023-02-07T18:54:08.568Z,41.23
2023-02-07T18:56:38.887Z,41.27
2023-02-07T18:59:06.122Z,41.57
2023-02-07T19:01:39.721Z,42.11
2023-02-07T19:04:09.726Z,41.99
2023-02-07T19:06:37.101Z,42.63
2023-02-07T19:09:04.347Z,42.54
2023-02-07T19:11:31.513Z,42.13
2023-02-07T19:13:58.771Z,42.43
2023-02-07T19:16:27.071Z,42.83
2023-02-07T19:18:59.278Z,42.77
2023-02-07T19:21:26.809Z,42.94
2023-02-07T19:23:56.071Z,43.13
2023-02-07T19:26:24.263Z,42.89
2023-02-07T19:28:53.077Z,43.24
2023-02-07T19:31:21.685Z,43.28
2023-02-07T19:33:50.645Z,43.23
2023-02-07T19:36:19.777Z,43.45
2023-02-07T19:38:47.414Z,43.30
2023-02-07T19:41:15.133Z,43.14
2023-02-07T19:43:42.695Z,43.23
2023-02-07T19:46:10.327Z,42.85
2023-02-07T19:48:38.527Z,43.56
2023-02-07T19:51:13.982Z,43.62
2023-02-07T19:53:44.117Z,42.94
2023-02-07T19:56:12.304Z,43.59
2023-02-07T19:58:42.310Z,42.97
2023-02-07T20:01:10.345Z,42.73
2023-02-07T20:03:38.902Z,42.53
2023-02-07T20:06:12.091Z,43.26
2023-02-07T20:08:43.180Z,43.16
2023-02-07T20:11:16.032Z,42.86
2023-02-07T20:13:48.173Z,43.57
2023-02-07T20:16:20.908Z,42.99
2023-02-07T20:18:49.364Z,43.24
2023-02-07T20:21:21.612Z,42.62
2023-02-07T20:23:55.226Z,42.84
2023-02-07T20:26:35.134Z,42.70
2023-02-07T20:29:08.953Z,42.61
2023-02-07T20:31:37.793Z,42.34
2023-02-07T20:34:08.543Z,42.75
2023-02-07T20:36:37.683Z,42.87
2023-02-07T20:39:04.929Z,42.64
2023-02-07T20:41:32.310Z,42.73
2023-02-07T20:44:08.827Z,43.06
2023-02-07T20:46:37.624Z,43.04
2023-02-07T20:49:13.944Z,42.54
2023-02-07T20:51:41.377Z,42.96
2023-02-07T20:54:10.917Z,43.16
2023-02-07T20:56:38.908Z,43.40
2023-02-07T20:59:07.657Z,43.41
2023-02-07T21:01:36.140Z,43.41
2023-02-07T21:04:05.785Z,43.76
2023-02-07T21:06:35.262Z,43.43
2023-02-07T21:09:06.425Z,43.56
2023-02-07T21:11:37.610Z,44.32
2023-02-07T21:14:08.738Z,43.84
2023-02-07T21:16:36.316Z,43.88
2023-02-07T21:19:03.832Z,43.69
2023-02-07T21:21:31.388Z,43.20
2023-02-07T21:23:59.651Z,43.64
2023-02-07T21:26:28.777Z,43.39
2023-02-07T21:29:02.443Z,43.38
2023-02-07T21:31:33.073Z,43.75
2023-02-07T21:34:03.558Z,43.79
2023-02-07T21:36:35.180Z,43.72
2023-02-07T21:39:02.509Z,43.48
2023-02-07T21:41:30.580Z,43.69
2023-02-07T21:43:59.382Z,43.65
2023-02-07T21:46:31.128Z,43.69
2023-02-07T21:49:02.650Z,43.51
2023-02-07T21:51:33.889Z,43.67
2023-02-07T21:54:03.744Z,43.68
2023-02-07T21:56:35.087Z,43.59
2023-02-07T21:59:06.897Z,43.99
2023-02-07T22:01:34.620Z,43.98
2023-02-07T22:04:03.935Z,43.68
2023-02-07T22:06:33.433Z,43.74
2023-02-07T22:09:02.456Z,44.46
2023-02-07T22:11:34.399Z,44.34
2023-02-07T22:14:01.966Z,44.08
2023-02-07T22:16:32.191Z,43.99
2023-02-07T22:19:02.177Z,43.97
2023-02-07T22:21:33.562Z,44.46
2023-02-07T22:24:02.433Z,43.96
2023-02-07T22:26:31.064Z,44.76
2023-02-07T22:28:58.675Z,44.80
2023-02-07T22:31:30.234Z,45.10
2023-02-07T22:34:03.949Z,44.88
2023-02-07T22:36:34.626Z,44.28
2023-02-07T22:39:04.234Z,45.00
2023-02-07T22:41:32.893Z,44.82
2023-02-07T22:44:00.522Z,45.06
2023-02-07T22:46:29.223Z,44.84
2023-02-07T22:48:57.062Z,45.01
2023-02-07T22:51:26.084Z,44.44
2023-02-07T22:53:58.787Z,44.42
2023-02-07T22:56:27.662Z,44.48
2023-02-07T22:58:56.197Z,44.37
2023-02-07T23:01:28.335Z,44.43
2023-02-07T23:03:56.992Z,45.20
2023-02-07T23:06:26.539Z,44.64
2023-02-07T23:08:54.690Z,44.69
2023-02-07T23:11:23.769Z,44.50
2023-02-07T23:13:53.193Z,44.22
2023-02-07T23:16:28.092Z,44.91
2023-02-07T23:19:01.636Z,44.65
2023-02-07T23:21:30.073Z,45.00
2023-02-07T23:23:58.013Z,44.69
2023-02-07T23:26:27.011Z,44.22
2023-02-07T23:28:54.858Z,44.46
2023-02-07T23:31:24.489Z,44.77
2023-02-07T23:33:53.366Z,45.15
2023-02-07T23:36:21.485Z,44.66
2023-02-07T23:38:50.284Z,44.86
2023-02-07T23:41:18.118Z,44.81
2023-02-07T23:43:45.931Z,45.20
2023-02-07T23:46:15.928Z,45.30
2023-02-07T23:48:43.764Z,45.33
2023-02-07T23:51:12.529Z,45.67
2023-02-07T23:53:40.146Z,45.65
2023-02-07T23:56:08.300Z,45.39
2023-02-07T23:58:36.735Z,45.44
